sensor_id;sensor_type;location;lat;lon;timestamp;P1;durP1;ratioP1;P2;durP2;ratioP2
9076;SDS011;4574;51.072;17.174;2023-04-07T00:00:34;14.17;;;8.87;;
9076;SDS011;4574;51.072;17.174;2023-04-07T00:03:03;12.20;;;8.60;;
9076;SDS011;4574;51.072;17.174;2023-04-07T00:05:33;13.53;;;10.60;;
9076;SDS011;4574;51.072;17.174;2023-04-07T00:08:02;14.60;;;9.33;;
9076;SDS011;4574;51.072;17.174;2023-04-07T00:10:32;17.07;;;8.70;;
9076;SDS011;4574;51.072;17.174;2023-04-07T00:13:00;10.30;;;7.90;;
9076;SDS011;4574;51.072;17.174;2023-04-07T00:15:29;11.70;;;8.67;;
9076;SDS011;4574;51.072;17.174;2023-04-07T00:17:57;12.13;;;8.57;;
9076;SDS011;4574;51.072;17.174;2023-04-07T00:20:26;11.23;;;8.87;;
9076;SDS011;4574;51.072;17.174;2023-04-07T00:22:54;11.23;;;8.60;;
9076;SDS011;4574;51.072;17.174;2023-04-07T00:25:23;11.83;;;8.43;;
9076;SDS011;4574;51.072;17.174;2023-04-07T00:27:53;11.33;;;8.80;;
9076;SDS011;4574;51.072;17.174;2023-04-07T00:30:21;13.53;;;8.80;;
9076;SDS011;4574;51.072;17.174;2023-04-07T00:32:50;11.20;;;8.83;;
9076;SDS011;4574;51.072;17.174;2023-04-07T00:35:19;10.50;;;8.23;;
9076;SDS011;4574;51.072;17.174;2023-04-07T00:37:47;9.67;;;7.57;;
9076;SDS011;4574;51.072;17.174;2023-04-07T00:40:16;13.63;;;9.03;;
9076;SDS011;4574;51.072;17.174;2023-04-07T00:42:44;10.43;;;7.80;;
9076;SDS011;4574;51.072;17.174;2023-04-07T00:45:14;10.83;;;8.27;;
9076;SDS011;4574;51.072;17.174;2023-04-07T00:47:43;12.97;;;9.13;;
9076;SDS011;4574;51.072;17.174;2023-04-07T00:50:12;11.83;;;8.63;;
9076;SDS011;4574;51.072;17.174;2023-04-07T00:52:40;13.13;;;9.10;;
9076;SDS011;4574;51.072;17.174;2023-04-07T00:55:09;13.03;;;9.00;;
9076;SDS011;4574;51.072;17.174;2023-04-07T00:57:37;10.87;;;8.40;;
9076;SDS011;4574;51.072;17.174;2023-04-07T01:00:06;15.13;;;8.70;;
9076;SDS011;4574;51.072;17.174;2023-04-07T01:02:39;12.97;;;8.90;;
9076;SDS011;4574;51.072;17.174;2023-04-07T01:05:12;13.10;;;9.07;;
9076;SDS011;4574;51.072;17.174;2023-04-07T01:07:47;12.67;;;8.87;;
9076;SDS011;4574;51.072;17.174;2023-04-07T01:10:26;11.30;;;8.37;;
9076;SDS011;4574;51.072;17.174;2023-04-07T01:13:00;11.63;;;8.67;;
9076;SDS011;4574;51.072;17.174;2023-04-07T01:15:33;12.93;;;8.87;;
9076;SDS011;4574;51.072;17.174;2023-04-07T01:18:08;12.03;;;9.10;;
9076;SDS011;4574;51.072;17.174;2023-04-07T01:20:40;13.70;;;9.40;;
9076;SDS011;4574;51.072;17.174;2023-04-07T01:26:06;11.57;;;9.40;;
9076;SDS011;4574;51.072;17.174;2023-04-07T01:28:48;12.90;;;9.50;;
9076;SDS011;4574;51.072;17.174;2023-04-07T01:31:29;14.73;;;9.60;;
9076;SDS011;4574;51.072;17.174;2023-04-07T01:33:58;14.63;;;9.27;;
9076;SDS011;4574;51.072;17.174;2023-04-07T01:36:29;14.00;;;9.23;;
9076;SDS011;4574;51.072;17.174;2023-04-07T01:39:00;14.60;;;9.77;;
9076;SDS011;4574;51.072;17.174;2023-04-07T01:41:29;14.23;;;9.57;;
9076;SDS011;4574;51.072;17.174;2023-04-07T01:43:59;13.90;;;9.67;;
9076;SDS011;4574;51.072;17.174;2023-04-07T01:46:30;13.97;;;9.80;;
9076;SDS011;4574;51.072;17.174;2023-04-07T01:48:59;11.77;;;9.03;;
9076;SDS011;4574;51.072;17.174;2023-04-07T01:51:30;14.13;;;10.13;;
9076;SDS011;4574;51.072;17.174;2023-04-07T01:54:00;13.37;;;10.33;;
9076;SDS011;4574;51.072;17.174;2023-04-07T01:56:30;13.77;;;10.03;;
9076;SDS011;4574;51.072;17.174;2023-04-07T01:58:59;12.63;;;8.87;;
9076;SDS011;4574;51.072;17.174;2023-04-07T02:01:28;13.23;;;9.53;;
9076;SDS011;4574;51.072;17.174;2023-04-07T02:04:01;11.80;;;9.13;;
9076;SDS011;4574;51.072;17.174;2023-04-07T02:06:42;15.30;;;10.00;;
9076;SDS011;4574;51.072;17.174;2023-04-07T02:09:17;14.90;;;11.20;;
9076;SDS011;4574;51.072;17.174;2023-04-07T02:11:48;14.90;;;10.40;;
9076;SDS011;4574;51.072;17.174;2023-04-07T02:14:19;12.17;;;10.20;;
9076;SDS011;4574;51.072;17.174;2023-04-07T02:16:49;14.33;;;11.40;;
9076;SDS011;4574;51.072;17.174;2023-04-07T02:19:21;16.87;;;10.50;;
9076;SDS011;4574;51.072;17.174;2023-04-07T02:21:50;14.33;;;11.13;;
9076;SDS011;4574;51.072;17.174;2023-04-07T02:24:20;16.33;;;10.23;;
9076;SDS011;4574;51.072;17.174;2023-04-07T02:26:49;16.17;;;11.07;;
9076;SDS011;4574;51.072;17.174;2023-04-07T02:29:17;17.87;;;12.33;;
9076;SDS011;4574;51.072;17.174;2023-04-07T02:31:46;13.87;;;10.80;;
9076;SDS011;4574;51.072;17.174;2023-04-07T02:34:15;14.47;;;10.33;;
9076;SDS011;4574;51.072;17.174;2023-04-07T02:36:45;16.30;;;10.13;;
9076;SDS011;4574;51.072;17.174;2023-04-07T02:39:14;14.93;;;10.47;;
9076;SDS011;4574;51.072;17.174;2023-04-07T02:41:44;14.03;;;10.53;;
9076;SDS011;4574;51.072;17.174;2023-04-07T02:44:12;13.70;;;9.97;;
9076;SDS011;4574;51.072;17.174;2023-04-07T02:46:41;13.20;;;10.00;;
9076;SDS011;4574;51.072;17.174;2023-04-07T02:49:09;14.10;;;10.07;;
9076;SDS011;4574;51.072;17.174;2023-04-07T02:51:38;13.43;;;9.53;;
9076;SDS011;4574;51.072;17.174;2023-04-07T02:54:08;15.63;;;11.07;;
9076;SDS011;4574;51.072;17.174;2023-04-07T02:56:37;15.60;;;10.73;;
9076;SDS011;4574;51.072;17.174;2023-04-07T02:59:05;12.97;;;9.93;;
9076;SDS011;4574;51.072;17.174;2023-04-07T03:01:34;13.27;;;9.33;;
9076;SDS011;4574;51.072;17.174;2023-04-07T03:04:04;16.33;;;10.63;;
9076;SDS011;4574;51.072;17.174;2023-04-07T03:06:33;13.23;;;10.00;;
9076;SDS011;4574;51.072;17.174;2023-04-07T03:09:02;11.33;;;9.50;;
9076;SDS011;4574;51.072;17.174;2023-04-07T03:11:32;13.83;;;9.80;;
9076;SDS011;4574;51.072;17.174;2023-04-07T03:14:00;18.87;;;10.93;;
9076;SDS011;4574;51.072;17.174;2023-04-07T03:16:29;18.53;;;11.00;;
9076;SDS011;4574;51.072;17.174;2023-04-07T03:18:58;12.73;;;9.73;;
9076;SDS011;4574;51.072;17.174;2023-04-07T03:21:26;15.37;;;9.77;;
9076;SDS011;4574;51.072;17.174;2023-04-07T03:23:55;12.83;;;9.70;;
9076;SDS011;4574;51.072;17.174;2023-04-07T03:26:23;14.57;;;9.50;;
9076;SDS011;4574;51.072;17.174;2023-04-07T03:28:53;12.10;;;9.53;;
9076;SDS011;4574;51.072;17.174;2023-04-07T03:31:23;14.53;;;10.33;;
9076;SDS011;4574;51.072;17.174;2023-04-07T03:33:51;12.50;;;9.57;;
9076;SDS011;4574;51.072;17.174;2023-04-07T03:36:20;11.77;;;8.50;;
9076;SDS011;4574;51.072;17.174;2023-04-07T03:38:50;14.53;;;9.70;;
9076;SDS011;4574;51.072;17.174;2023-04-07T03:41:19;14.27;;;9.93;;
9076;SDS011;4574;51.072;17.174;2023-04-07T03:43:47;12.40;;;8.67;;
9076;SDS011;4574;51.072;17.174;2023-04-07T03:46:19;14.80;;;10.53;;
9076;SDS011;4574;51.072;17.174;2023-04-07T03:48:48;15.07;;;9.37;;
9076;SDS011;4574;51.072;17.174;2023-04-07T03:51:17;11.90;;;9.37;;
9076;SDS011;4574;51.072;17.174;2023-04-07T03:53:45;13.77;;;10.20;;
9076;SDS011;4574;51.072;17.174;2023-04-07T03:56:14;14.50;;;9.60;;
9076;SDS011;4574;51.072;17.174;2023-04-07T03:58:42;14.77;;;9.07;;
9076;SDS011;4574;51.072;17.174;2023-04-07T04:01:12;15.87;;;10.63;;
9076;SDS011;4574;51.072;17.174;2023-04-07T04:03:42;11.53;;;9.30;;
9076;SDS011;4574;51.072;17.174;2023-04-07T04:06:10;13.43;;;10.23;;
9076;SDS011;4574;51.072;17.174;2023-04-07T04:08:39;14.07;;;10.03;;
9076;SDS011;4574;51.072;17.174;2023-04-07T04:11:08;13.43;;;10.23;;
9076;SDS011;4574;51.072;17.174;2023-04-07T04:13:37;16.70;;;9.67;;
9076;SDS011;4574;51.072;17.174;2023-04-07T04:16:06;16.63;;;11.97;;
9076;SDS011;4574;51.072;17.174;2023-04-07T04:18:35;23.23;;;12.67;;
9076;SDS011;4574;51.072;17.174;2023-04-07T04:21:05;20.60;;;12.50;;
9076;SDS011;4574;51.072;17.174;2023-04-07T04:23:34;22.73;;;13.47;;
9076;SDS011;4574;51.072;17.174;2023-04-07T04:26:03;27.83;;;13.30;;
9076;SDS011;4574;51.072;17.174;2023-04-07T04:28:32;22.53;;;13.30;;
9076;SDS011;4574;51.072;17.174;2023-04-07T04:31:01;17.03;;;12.13;;
9076;SDS011;4574;51.072;17.174;2023-04-07T04:33:30;20.83;;;11.20;;
9076;SDS011;4574;51.072;17.174;2023-04-07T04:35:58;20.63;;;12.20;;
9076;SDS011;4574;51.072;17.174;2023-04-07T04:38:28;21.57;;;13.17;;
9076;SDS011;4574;51.072;17.174;2023-04-07T04:40:58;20.27;;;12.40;;
9076;SDS011;4574;51.072;17.174;2023-04-07T04:43:28;20.57;;;13.20;;
9076;SDS011;4574;51.072;17.174;2023-04-07T04:45:57;19.97;;;13.00;;
9076;SDS011;4574;51.072;17.174;2023-04-07T04:48:26;17.93;;;12.23;;
9076;SDS011;4574;51.072;17.174;2023-04-07T04:50:55;16.00;;;11.00;;
9076;SDS011;4574;51.072;17.174;2023-04-07T04:53:23;15.83;;;10.77;;
9076;SDS011;4574;51.072;17.174;2023-04-07T04:55:53;14.60;;;10.57;;
9076;SDS011;4574;51.072;17.174;2023-04-07T04:58:22;17.43;;;10.63;;
9076;SDS011;4574;51.072;17.174;2023-04-07T05:00:52;16.67;;;10.67;;
9076;SDS011;4574;51.072;17.174;2023-04-07T05:03:23;16.13;;;11.73;;
9076;SDS011;4574;51.072;17.174;2023-04-07T05:05:54;16.07;;;11.70;;
9076;SDS011;4574;51.072;17.174;2023-04-07T05:08:23;18.30;;;12.47;;
9076;SDS011;4574;51.072;17.174;2023-04-07T05:10:51;20.70;;;14.23;;
9076;SDS011;4574;51.072;17.174;2023-04-07T05:13:22;17.93;;;12.03;;
9076;SDS011;4574;51.072;17.174;2023-04-07T05:15:51;16.70;;;12.87;;
9076;SDS011;4574;51.072;17.174;2023-04-07T05:18:20;23.70;;;14.03;;
9076;SDS011;4574;51.072;17.174;2023-04-07T05:20:49;19.40;;;12.40;;
9076;SDS011;4574;51.072;17.174;2023-04-07T05:23:17;16.10;;;10.73;;
9076;SDS011;4574;51.072;17.174;2023-04-07T05:25:46;13.97;;;10.00;;
9076;SDS011;4574;51.072;17.174;2023-04-07T05:28:17;17.57;;;10.57;;
9076;SDS011;4574;51.072;17.174;2023-04-07T05:30:46;15.40;;;11.00;;
9076;SDS011;4574;51.072;17.174;2023-04-07T05:33:15;17.27;;;10.53;;
9076;SDS011;4574;51.072;17.174;2023-04-07T05:35:43;17.63;;;11.13;;
9076;SDS011;4574;51.072;17.174;2023-04-07T05:38:12;16.70;;;11.03;;
9076;SDS011;4574;51.072;17.174;2023-04-07T05:40:42;14.60;;;9.73;;
9076;SDS011;4574;51.072;17.174;2023-04-07T05:43:11;13.73;;;10.70;;
9076;SDS011;4574;51.072;17.174;2023-04-07T05:45:42;15.00;;;10.80;;
9076;SDS011;4574;51.072;17.174;2023-04-07T05:48:10;15.43;;;10.43;;
9076;SDS011;4574;51.072;17.174;2023-04-07T05:50:39;12.03;;;9.63;;
9076;SDS011;4574;51.072;17.174;2023-04-07T05:53:07;14.27;;;10.57;;
9076;SDS011;4574;51.072;17.174;2023-04-07T05:55:36;12.17;;;9.43;;
9076;SDS011;4574;51.072;17.174;2023-04-07T05:58:04;17.30;;;11.40;;
9076;SDS011;4574;51.072;17.174;2023-04-07T06:00:33;14.07;;;10.73;;
9076;SDS011;4574;51.072;17.174;2023-04-07T06:03:03;13.77;;;10.13;;
9076;SDS011;4574;51.072;17.174;2023-04-07T06:05:32;13.10;;;9.80;;
9076;SDS011;4574;51.072;17.174;2023-04-07T06:08:01;15.67;;;10.60;;
9076;SDS011;4574;51.072;17.174;2023-04-07T06:10:30;15.20;;;10.83;;
9076;SDS011;4574;51.072;17.174;2023-04-07T06:12:58;15.63;;;10.43;;
9076;SDS011;4574;51.072;17.174;2023-04-07T06:15:27;15.33;;;10.37;;
9076;SDS011;4574;51.072;17.174;2023-04-07T06:17:58;13.47;;;10.27;;
9076;SDS011;4574;51.072;17.174;2023-04-07T06:20:28;15.97;;;10.73;;
9076;SDS011;4574;51.072;17.174;2023-04-07T06:22:56;14.87;;;10.60;;
9076;SDS011;4574;51.072;17.174;2023-04-07T06:25:25;13.77;;;10.83;;
9076;SDS011;4574;51.072;17.174;2023-04-07T06:27:54;15.77;;;10.40;;
9076;SDS011;4574;51.072;17.174;2023-04-07T06:30:22;15.47;;;10.87;;
9076;SDS011;4574;51.072;17.174;2023-04-07T06:32:51;14.80;;;10.20;;
9076;SDS011;4574;51.072;17.174;2023-04-07T06:35:20;13.93;;;10.57;;
9076;SDS011;4574;51.072;17.174;2023-04-07T06:37:50;15.53;;;10.40;;
9076;SDS011;4574;51.072;17.174;2023-04-07T06:40:19;14.43;;;10.33;;
9076;SDS011;4574;51.072;17.174;2023-04-07T06:42:47;14.27;;;10.00;;
9076;SDS011;4574;51.072;17.174;2023-04-07T06:45:17;16.93;;;10.90;;
9076;SDS011;4574;51.072;17.174;2023-04-07T06:47:48;16.97;;;10.23;;
9076;SDS011;4574;51.072;17.174;2023-04-07T06:50:18;12.57;;;9.67;;
9076;SDS011;4574;51.072;17.174;2023-04-07T06:52:49;12.80;;;9.77;;
9076;SDS011;4574;51.072;17.174;2023-04-07T06:55:18;11.80;;;9.33;;
9076;SDS011;4574;51.072;17.174;2023-04-07T06:57:47;12.13;;;9.53;;
9076;SDS011;4574;51.072;17.174;2023-04-07T07:00:18;12.57;;;9.03;;
9076;SDS011;4574;51.072;17.174;2023-04-07T07:02:48;14.80;;;10.40;;
9076;SDS011;4574;51.072;17.174;2023-04-07T07:05:17;14.33;;;10.60;;
9076;SDS011;4574;51.072;17.174;2023-04-07T07:07:46;14.03;;;10.10;;
9076;SDS011;4574;51.072;17.174;2023-04-07T07:10:16;13.57;;;10.67;;
9076;SDS011;4574;51.072;17.174;2023-04-07T07:12:46;15.83;;;10.37;;
9076;SDS011;4574;51.072;17.174;2023-04-07T07:15:14;16.37;;;10.13;;
9076;SDS011;4574;51.072;17.174;2023-04-07T07:17:43;14.37;;;10.80;;
9076;SDS011;4574;51.072;17.174;2023-04-07T07:20:12;14.70;;;10.30;;
9076;SDS011;4574;51.072;17.174;2023-04-07T07:22:44;14.73;;;10.70;;
9076;SDS011;4574;51.072;17.174;2023-04-07T07:25:13;14.13;;;10.93;;
9076;SDS011;4574;51.072;17.174;2023-04-07T07:27:43;18.67;;;11.90;;
9076;SDS011;4574;51.072;17.174;2023-04-07T07:30:12;16.17;;;11.60;;
9076;SDS011;4574;51.072;17.174;2023-04-07T07:32:40;14.10;;;10.57;;
9076;SDS011;4574;51.072;17.174;2023-04-07T07:35:09;16.07;;;10.93;;
9076;SDS011;4574;51.072;17.174;2023-04-07T07:37:38;13.00;;;10.10;;
9076;SDS011;4574;51.072;17.174;2023-04-07T07:40:06;13.27;;;10.07;;
9076;SDS011;4574;51.072;17.174;2023-04-07T07:42:35;13.43;;;9.60;;
9076;SDS011;4574;51.072;17.174;2023-04-07T07:45:06;12.30;;;9.20;;
9076;SDS011;4574;51.072;17.174;2023-04-07T07:47:35;11.83;;;9.13;;
9076;SDS011;4574;51.072;17.174;2023-04-07T07:50:03;13.27;;;8.83;;
9076;SDS011;4574;51.072;17.174;2023-04-07T07:52:33;12.83;;;9.73;;
9076;SDS011;4574;51.072;17.174;2023-04-07T07:55:01;13.03;;;9.57;;
9076;SDS011;4574;51.072;17.174;2023-04-07T07:57:30;10.87;;;8.93;;
9076;SDS011;4574;51.072;17.174;2023-04-07T07:59:59;13.33;;;9.53;;
9076;SDS011;4574;51.072;17.174;2023-04-07T08:02:29;15.67;;;10.00;;
9076;SDS011;4574;51.072;17.174;2023-04-07T08:04:59;13.70;;;10.23;;
9076;SDS011;4574;51.072;17.174;2023-04-07T08:07:28;14.07;;;10.57;;
9076;SDS011;4574;51.072;17.174;2023-04-07T08:09:57;15.60;;;10.30;;
9076;SDS011;4574;51.072;17.174;2023-04-07T08:12:25;14.53;;;10.30;;
9076;SDS011;4574;51.072;17.174;2023-04-07T08:14:54;13.80;;;9.87;;
9076;SDS011;4574;51.072;17.174;2023-04-07T08:17:22;12.60;;;9.47;;
9076;SDS011;4574;51.072;17.174;2023-04-07T08:19:53;12.23;;;9.20;;
9076;SDS011;4574;51.072;17.174;2023-04-07T08:22:21;14.57;;;9.30;;
9076;SDS011;4574;51.072;17.174;2023-04-07T08:24:50;12.80;;;9.07;;
9076;SDS011;4574;51.072;17.174;2023-04-07T08:27:19;13.17;;;9.20;;
9076;SDS011;4574;51.072;17.174;2023-04-07T08:29:50;11.37;;;8.83;;
9076;SDS011;4574;51.072;17.174;2023-04-07T08:32:32;12.57;;;9.07;;
9076;SDS011;4574;51.072;17.174;2023-04-07T08:35:04;13.33;;;9.70;;
9076;SDS011;4574;51.072;17.174;2023-04-07T08:37:36;11.37;;;9.10;;
9076;SDS011;4574;51.072;17.174;2023-04-07T08:40:06;12.93;;;9.37;;
9076;SDS011;4574;51.072;17.174;2023-04-07T08:42:39;10.77;;;8.83;;
9076;SDS011;4574;51.072;17.174;2023-04-07T08:45:09;11.97;;;8.77;;
9076;SDS011;4574;51.072;17.174;2023-04-07T08:47:39;11.23;;;8.93;;
9076;SDS011;4574;51.072;17.174;2023-04-07T08:50:13;13.53;;;9.50;;
9076;SDS011;4574;51.072;17.174;2023-04-07T08:52:44;13.00;;;9.13;;
9076;SDS011;4574;51.072;17.174;2023-04-07T08:55:16;10.60;;;8.33;;
9076;SDS011;4574;51.072;17.174;2023-04-07T08:57:45;11.40;;;9.27;;
9076;SDS011;4574;51.072;17.174;2023-04-07T09:00:15;16.27;;;10.43;;
9076;SDS011;4574;51.072;17.174;2023-04-07T09:02:43;14.83;;;10.03;;
9076;SDS011;4574;51.072;17.174;2023-04-07T09:05:19;14.90;;;10.47;;
9076;SDS011;4574;51.072;17.174;2023-04-07T09:07:52;14.80;;;10.30;;
9076;SDS011;4574;51.072;17.174;2023-04-07T09:10:30;12.87;;;9.60;;
9076;SDS011;4574;51.072;17.174;2023-04-07T09:12:58;15.33;;;10.80;;
9076;SDS011;4574;51.072;17.174;2023-04-07T09:15:29;13.00;;;9.57;;
9076;SDS011;4574;51.072;17.174;2023-04-07T09:17:58;12.87;;;8.50;;
9076;SDS011;4574;51.072;17.174;2023-04-07T09:20:28;14.43;;;9.43;;
9076;SDS011;4574;51.072;17.174;2023-04-07T09:23:27;13.50;;;9.30;;
9076;SDS011;4574;51.072;17.174;2023-04-07T09:25:57;14.30;;;9.80;;
9076;SDS011;4574;51.072;17.174;2023-04-07T09:28:40;12.67;;;9.63;;
9076;SDS011;4574;51.072;17.174;2023-04-07T09:31:09;11.57;;;8.90;;
9076;SDS011;4574;51.072;17.174;2023-04-07T09:33:37;12.83;;;8.50;;
9076;SDS011;4574;51.072;17.174;2023-04-07T09:36:07;11.97;;;8.63;;
9076;SDS011;4574;51.072;17.174;2023-04-07T09:38:37;13.27;;;8.70;;
9076;SDS011;4574;51.072;17.174;2023-04-07T09:41:08;11.03;;;7.83;;
9076;SDS011;4574;51.072;17.174;2023-04-07T09:43:39;11.57;;;8.17;;
9076;SDS011;4574;51.072;17.174;2023-04-07T09:46:11;12.27;;;8.30;;
9076;SDS011;4574;51.072;17.174;2023-04-07T09:48:41;9.83;;;7.70;;
9076;SDS011;4574;51.072;17.174;2023-04-07T09:51:12;11.67;;;9.00;;
9076;SDS011;4574;51.072;17.174;2023-04-07T09:53:43;11.07;;;8.33;;
9076;SDS011;4574;51.072;17.174;2023-04-07T09:56:15;12.50;;;9.23;;
9076;SDS011;4574;51.072;17.174;2023-04-07T09:58:45;11.13;;;8.10;;
9076;SDS011;4574;51.072;17.174;2023-04-07T10:01:17;11.57;;;9.17;;
9076;SDS011;4574;51.072;17.174;2023-04-07T10:03:49;10.17;;;8.20;;
9076;SDS011;4574;51.072;17.174;2023-04-07T10:06:20;12.63;;;8.57;;
9076;SDS011;4574;51.072;17.174;2023-04-07T10:08:48;10.40;;;8.47;;
9076;SDS011;4574;51.072;17.174;2023-04-07T10:11:18;13.10;;;8.93;;
9076;SDS011;4574;51.072;17.174;2023-04-07T10:13:48;12.07;;;8.33;;
9076;SDS011;4574;51.072;17.174;2023-04-07T10:16:17;10.97;;;8.23;;
9076;SDS011;4574;51.072;17.174;2023-04-07T10:18:46;12.37;;;8.87;;
9076;SDS011;4574;51.072;17.174;2023-04-07T10:21:16;12.27;;;9.30;;
9076;SDS011;4574;51.072;17.174;2023-04-07T10:23:52;11.63;;;8.53;;
9076;SDS011;4574;51.072;17.174;2023-04-07T10:26:27;11.20;;;8.20;;
9076;SDS011;4574;51.072;17.174;2023-04-07T10:29:01;11.67;;;8.87;;
9076;SDS011;4574;51.072;17.174;2023-04-07T10:31:34;11.77;;;8.50;;
9076;SDS011;4574;51.072;17.174;2023-04-07T10:34:04;12.03;;;8.77;;
9076;SDS011;4574;51.072;17.174;2023-04-07T10:36:33;11.07;;;8.73;;
9076;SDS011;4574;51.072;17.174;2023-04-07T10:39:19;12.17;;;8.90;;
9076;SDS011;4574;51.072;17.174;2023-04-07T10:41:49;10.80;;;8.27;;
9076;SDS011;4574;51.072;17.174;2023-04-07T10:47:13;10.87;;;7.97;;
9076;SDS011;4574;51.072;17.174;2023-04-07T10:52:45;12.93;;;8.70;;
9076;SDS011;4574;51.072;17.174;2023-04-07T10:55:28;13.07;;;9.00;;
9076;SDS011;4574;51.072;17.174;2023-04-07T10:58:12;13.13;;;8.97;;
9076;SDS011;4574;51.072;17.174;2023-04-07T11:03:57;13.20;;;8.83;;
9076;SDS011;4574;51.072;17.174;2023-04-07T11:06:27;12.80;;;9.13;;
9076;SDS011;4574;51.072;17.174;2023-04-07T11:08:57;10.97;;;8.43;;
9076;SDS011;4574;51.072;17.174;2023-04-07T11:11:37;12.00;;;8.30;;
9076;SDS011;4574;51.072;17.174;2023-04-07T11:14:07;10.13;;;7.47;;
9076;SDS011;4574;51.072;17.174;2023-04-07T11:16:37;12.23;;;8.90;;
9076;SDS011;4574;51.072;17.174;2023-04-07T11:19:07;11.40;;;9.03;;
9076;SDS011;4574;51.072;17.174;2023-04-07T11:21:36;15.90;;;10.57;;
9076;SDS011;4574;51.072;17.174;2023-04-07T11:24:05;12.77;;;9.57;;
9076;SDS011;4574;51.072;17.174;2023-04-07T11:26:39;12.50;;;8.77;;
9076;SDS011;4574;51.072;17.174;2023-04-07T11:29:08;13.07;;;8.80;;
9076;SDS011;4574;51.072;17.174;2023-04-07T11:31:38;11.33;;;8.30;;
9076;SDS011;4574;51.072;17.174;2023-04-07T11:34:07;11.60;;;9.03;;
9076;SDS011;4574;51.072;17.174;2023-04-07T11:36:37;13.20;;;10.03;;
9076;SDS011;4574;51.072;17.174;2023-04-07T11:39:16;12.13;;;9.30;;
9076;SDS011;4574;51.072;17.174;2023-04-07T11:41:49;13.53;;;9.57;;
9076;SDS011;4574;51.072;17.174;2023-04-07T11:44:18;13.03;;;8.57;;
9076;SDS011;4574;51.072;17.174;2023-04-07T11:46:53;11.43;;;8.70;;
9076;SDS011;4574;51.072;17.174;2023-04-07T11:49:23;13.10;;;9.50;;
9076;SDS011;4574;51.072;17.174;2023-04-07T11:51:57;15.37;;;9.40;;
9076;SDS011;4574;51.072;17.174;2023-04-07T11:54:26;14.17;;;9.07;;
9076;SDS011;4574;51.072;17.174;2023-04-07T11:57:06;14.43;;;10.00;;
9076;SDS011;4574;51.072;17.174;2023-04-07T11:59:38;12.47;;;9.33;;
9076;SDS011;4574;51.072;17.174;2023-04-07T12:02:08;13.00;;;9.37;;
9076;SDS011;4574;51.072;17.174;2023-04-07T12:04:36;10.57;;;8.37;;
9076;SDS011;4574;51.072;17.174;2023-04-07T12:07:06;12.33;;;9.03;;
9076;SDS011;4574;51.072;17.174;2023-04-07T12:09:36;12.70;;;9.73;;
9076;SDS011;4574;51.072;17.174;2023-04-07T12:12:07;12.90;;;8.67;;
9076;SDS011;4574;51.072;17.174;2023-04-07T12:14:36;13.07;;;9.70;;
9076;SDS011;4574;51.072;17.174;2023-04-07T12:17:04;11.73;;;9.27;;
9076;SDS011;4574;51.072;17.174;2023-04-07T12:19:35;12.70;;;9.73;;
9076;SDS011;4574;51.072;17.174;2023-04-07T12:22:05;9.83;;;8.27;;
9076;SDS011;4574;51.072;17.174;2023-04-07T12:24:34;14.17;;;9.63;;
9076;SDS011;4574;51.072;17.174;2023-04-07T12:27:04;12.50;;;8.93;;
9076;SDS011;4574;51.072;17.174;2023-04-07T12:29:35;12.07;;;8.70;;
9076;SDS011;4574;51.072;17.174;2023-04-07T12:32:04;11.73;;;8.87;;
9076;SDS011;4574;51.072;17.174;2023-04-07T12:34:33;13.07;;;9.40;;
9076;SDS011;4574;51.072;17.174;2023-04-07T12:37:03;12.23;;;8.90;;
9076;SDS011;4574;51.072;17.174;2023-04-07T12:39:31;13.77;;;9.17;;
9076;SDS011;4574;51.072;17.174;2023-04-07T12:42:00;11.23;;;8.47;;
9076;SDS011;4574;51.072;17.174;2023-04-07T12:44:30;11.63;;;8.73;;
9076;SDS011;4574;51.072;17.174;2023-04-07T12:46:59;11.83;;;8.73;;
9076;SDS011;4574;51.072;17.174;2023-04-07T12:49:30;15.23;;;10.60;;
9076;SDS011;4574;51.072;17.174;2023-04-07T12:51:59;14.57;;;10.00;;
9076;SDS011;4574;51.072;17.174;2023-04-07T12:54:27;11.83;;;9.13;;
9076;SDS011;4574;51.072;17.174;2023-04-07T12:56:56;12.37;;;9.50;;
9076;SDS011;4574;51.072;17.174;2023-04-07T12:59:25;12.53;;;9.60;;
9076;SDS011;4574;51.072;17.174;2023-04-07T13:01:55;10.97;;;8.97;;
9076;SDS011;4574;51.072;17.174;2023-04-07T13:04:24;12.07;;;9.37;;
9076;SDS011;4574;51.072;17.174;2023-04-07T13:06:56;12.50;;;8.40;;
9076;SDS011;4574;51.072;17.174;2023-04-07T13:09:25;11.27;;;8.97;;
9076;SDS011;4574;51.072;17.174;2023-04-07T13:11:53;11.70;;;9.03;;
9076;SDS011;4574;51.072;17.174;2023-04-07T13:14:24;12.73;;;9.70;;
9076;SDS011;4574;51.072;17.174;2023-04-07T13:16:53;10.90;;;9.13;;
9076;SDS011;4574;51.072;17.174;2023-04-07T13:19:24;14.10;;;9.43;;
9076;SDS011;4574;51.072;17.174;2023-04-07T13:21:55;11.03;;;8.93;;
9076;SDS011;4574;51.072;17.174;2023-04-07T13:24:23;12.30;;;8.80;;
9076;SDS011;4574;51.072;17.174;2023-04-07T13:26:52;12.67;;;9.10;;
9076;SDS011;4574;51.072;17.174;2023-04-07T13:29:24;13.70;;;9.80;;
9076;SDS011;4574;51.072;17.174;2023-04-07T13:32:04;15.57;;;10.40;;
9076;SDS011;4574;51.072;17.174;2023-04-07T13:34:33;11.90;;;9.37;;
9076;SDS011;4574;51.072;17.174;2023-04-07T13:37:03;14.10;;;9.53;;
9076;SDS011;4574;51.072;17.174;2023-04-07T13:39:32;13.30;;;10.07;;
9076;SDS011;4574;51.072;17.174;2023-04-07T13:42:01;15.30;;;10.13;;
9076;SDS011;4574;51.072;17.174;2023-04-07T13:44:30;13.43;;;10.17;;
9076;SDS011;4574;51.072;17.174;2023-04-07T13:46:59;14.20;;;10.43;;
9076;SDS011;4574;51.072;17.174;2023-04-07T13:49:30;14.17;;;9.80;;
9076;SDS011;4574;51.072;17.174;2023-04-07T13:51:59;12.33;;;9.63;;
9076;SDS011;4574;51.072;17.174;2023-04-07T13:54:28;13.47;;;9.50;;
9076;SDS011;4574;51.072;17.174;2023-04-07T13:56:56;16.33;;;10.70;;
9076;SDS011;4574;51.072;17.174;2023-04-07T13:59:25;13.33;;;9.87;;
9076;SDS011;4574;51.072;17.174;2023-04-07T14:01:54;12.03;;;9.33;;
9076;SDS011;4574;51.072;17.174;2023-04-07T14:04:23;13.97;;;10.23;;
9076;SDS011;4574;51.072;17.174;2023-04-07T14:06:53;13.50;;;9.87;;
9076;SDS011;4574;51.072;17.174;2023-04-07T14:09:22;13.13;;;10.20;;
9076;SDS011;4574;51.072;17.174;2023-04-07T14:11:50;13.10;;;9.37;;
9076;SDS011;4574;51.072;17.174;2023-04-07T14:14:19;14.80;;;9.53;;
9076;SDS011;4574;51.072;17.174;2023-04-07T14:16:49;15.27;;;10.30;;
9076;SDS011;4574;51.072;17.174;2023-04-07T14:19:19;15.47;;;10.80;;
9076;SDS011;4574;51.072;17.174;2023-04-07T14:21:50;13.13;;;9.10;;
9076;SDS011;4574;51.072;17.174;2023-04-07T14:24:21;15.53;;;10.83;;
9076;SDS011;4574;51.072;17.174;2023-04-07T14:26:50;14.77;;;10.53;;
9076;SDS011;4574;51.072;17.174;2023-04-07T14:29:20;14.43;;;10.23;;
9076;SDS011;4574;51.072;17.174;2023-04-07T14:31:49;14.13;;;10.43;;
9076;SDS011;4574;51.072;17.174;2023-04-07T14:34:18;13.80;;;10.30;;
9076;SDS011;4574;51.072;17.174;2023-04-07T14:36:55;15.17;;;10.47;;
9076;SDS011;4574;51.072;17.174;2023-04-07T14:39:25;23.77;;;13.87;;
9076;SDS011;4574;51.072;17.174;2023-04-07T14:41:54;31.30;;;20.20;;
9076;SDS011;4574;51.072;17.174;2023-04-07T14:44:23;17.37;;;12.87;;
9076;SDS011;4574;51.072;17.174;2023-04-07T14:46:52;15.83;;;10.80;;
9076;SDS011;4574;51.072;17.174;2023-04-07T14:49:20;13.30;;;9.87;;
9076;SDS011;4574;51.072;17.174;2023-04-07T14:51:50;16.50;;;10.83;;
9076;SDS011;4574;51.072;17.174;2023-04-07T14:54:21;15.00;;;10.67;;
9076;SDS011;4574;51.072;17.174;2023-04-07T14:56:50;15.37;;;10.17;;
9076;SDS011;4574;51.072;17.174;2023-04-07T14:59:19;16.53;;;11.17;;
9076;SDS011;4574;51.072;17.174;2023-04-07T15:01:47;14.07;;;10.07;;
9076;SDS011;4574;51.072;17.174;2023-04-07T15:04:17;14.63;;;10.03;;
9076;SDS011;4574;51.072;17.174;2023-04-07T15:06:46;14.13;;;9.33;;
9076;SDS011;4574;51.072;17.174;2023-04-07T15:09:14;13.93;;;9.73;;
9076;SDS011;4574;51.072;17.174;2023-04-07T15:11:45;13.57;;;9.73;;